sensor_id;sensor_type;location;lat;lon;timestamp;temperature;humidity
61641;HTU21D;62201;49.966;8.342;2023-06-14T00:02:16;19.37;42.56
61641;HTU21D;62201;49.966;8.342;2023-06-14T00:04:41;19.39;42.40
61641;HTU21D;62201;49.966;8.342;2023-06-14T00:07:08;19.32;42.65
61641;HTU21D;62201;49.966;8.342;2023-06-14T00:09:34;19.29;42.70
61641;HTU21D;62201;49.966;8.342;2023-06-14T00:12:00;19.27;43.00
61641;HTU21D;62201;49.966;8.342;2023-06-14T00:14:25;19.27;42.90
61641;HTU21D;62201;49.966;8.342;2023-06-14T00:16:50;19.28;43.07
61641;HTU21D;62201;49.966;8.342;2023-06-14T00:19:17;19.24;43.25
61641;HTU21D;62201;49.966;8.342;2023-06-14T00:21:43;19.21;43.34
61641;HTU21D;62201;49.966;8.342;2023-06-14T00:24:08;19.21;43.29
61641;HTU21D;62201;49.966;8.342;2023-06-14T00:26:34;19.20;43.44
61641;HTU21D;62201;49.966;8.342;2023-06-14T00:28:59;19.15;43.48
61641;HTU21D;62201;49.966;8.342;2023-06-14T00:31:25;19.07;43.61
61641;HTU21D;62201;49.966;8.342;2023-06-14T00:33:50;19.03;43.73
61641;HTU21D;62201;49.966;8.342;2023-06-14T00:36:16;18.97;43.98
61641;HTU21D;62201;49.966;8.342;2023-06-14T00:38:41;18.93;44.19
61641;HTU21D;62201;49.966;8.342;2023-06-14T00:41:06;18.95;44.02
61641;HTU21D;62201;49.966;8.342;2023-06-14T00:43:32;18.95;43.97
61641;HTU21D;62201;49.966;8.342;2023-06-14T00:46:00;18.91;44.04
61641;HTU21D;62201;49.966;8.342;2023-06-14T00:48:25;18.84;44.17
61641;HTU21D;62201;49.966;8.342;2023-06-14T00:50:51;18.82;44.48
61641;HTU21D;62201;49.966;8.342;2023-06-14T00:53:18;18.73;44.38
61641;HTU21D;62201;49.966;8.342;2023-06-14T00:55:46;18.70;44.68
61641;HTU21D;62201;49.966;8.342;2023-06-14T00:58:12;18.66;44.71
61641;HTU21D;62201;49.966;8.342;2023-06-14T01:00:37;18.64;44.82
61641;HTU21D;62201;49.966;8.342;2023-06-14T01:03:03;18.62;44.93
61641;HTU21D;62201;49.966;8.342;2023-06-14T01:05:29;18.55;45.35
61641;HTU21D;62201;49.966;8.342;2023-06-14T01:08:17;18.53;45.47
61641;HTU21D;62201;49.966;8.342;2023-06-14T01:11:26;18.49;45.46
61641;HTU21D;62201;49.966;8.342;2023-06-14T01:13:45;18.44;45.46
61641;HTU21D;62201;49.966;8.342;2023-06-14T01:16:11;18.42;45.41
61641;HTU21D;62201;49.966;8.342;2023-06-14T01:18:37;18.39;45.61
61641;HTU21D;62201;49.966;8.342;2023-06-14T01:21:03;18.34;45.76
61641;HTU21D;62201;49.966;8.342;2023-06-14T01:23:32;18.33;45.89
61641;HTU21D;62201;49.966;8.342;2023-06-14T01:25:58;18.30;45.80
61641;HTU21D;62201;49.966;8.342;2023-06-14T01:28:25;18.24;46.21
61641;HTU21D;62201;49.966;8.342;2023-06-14T01:30:59;18.20;46.06
61641;HTU21D;62201;49.966;8.342;2023-06-14T01:33:27;18.13;46.24
61641;HTU21D;62201;49.966;8.342;2023-06-14T01:35:54;18.08;46.44
61641;HTU21D;62201;49.966;8.342;2023-06-14T01:38:25;18.08;46.39
61641;HTU21D;62201;49.966;8.342;2023-06-14T01:40:53;18.08;46.35
61641;HTU21D;62201;49.966;8.342;2023-06-14T01:43:19;18.04;46.43
61641;HTU21D;62201;49.966;8.342;2023-06-14T01:45:47;17.98;46.57
61641;HTU21D;62201;49.966;8.342;2023-06-14T01:48:14;17.95;46.62
61641;HTU21D;62201;49.966;8.342;2023-06-14T01:50:40;17.90;46.92
61641;HTU21D;62201;49.966;8.342;2023-06-14T01:53:09;17.88;46.87
61641;HTU21D;62201;49.966;8.342;2023-06-14T01:55:34;17.83;46.94
61641;HTU21D;62201;49.966;8.342;2023-06-14T01:58:03;17.81;47.00
61641;HTU21D;62201;49.966;8.342;2023-06-14T02:00:28;17.76;47.13
61641;HTU21D;62201;49.966;8.342;2023-06-14T02:02:54;17.74;47.28
61641;HTU21D;62201;49.966;8.342;2023-06-14T02:05:19;17.72;47.23
61641;HTU21D;62201;49.966;8.342;2023-06-14T02:07:45;17.67;47.31
61641;HTU21D;62201;49.966;8.342;2023-06-14T02:10:11;17.65;47.38
61641;HTU21D;62201;49.966;8.342;2023-06-14T02:12:36;17.64;47.35
61641;HTU21D;62201;49.966;8.342;2023-06-14T02:15:02;17.61;47.42
61641;HTU21D;62201;49.966;8.342;2023-06-14T02:17:29;17.60;47.56
61641;HTU21D;62201;49.966;8.342;2023-06-14T02:19:54;17.54;48.08
61641;HTU21D;62201;49.966;8.342;2023-06-14T02:22:22;17.47;47.86
61641;HTU21D;62201;49.966;8.342;2023-06-14T02:24:48;17.45;47.89
61641;HTU21D;62201;49.966;8.342;2023-06-14T02:27:13;17.46;47.86
61641;HTU21D;62201;49.966;8.342;2023-06-14T02:29:38;17.41;47.96
61641;HTU21D;62201;49.966;8.342;2023-06-14T02:32:05;17.44;47.92
61641;HTU21D;62201;49.966;8.342;2023-06-14T02:34:35;17.40;48.00
61641;HTU21D;62201;49.966;8.342;2023-06-14T02:37:01;17.43;47.83
61641;HTU21D;62201;49.966;8.342;2023-06-14T02:39:28;17.39;47.92
61641;HTU21D;62201;49.966;8.342;2023-06-14T02:41:54;17.41;47.93
61641;HTU21D;62201;49.966;8.342;2023-06-14T02:44:19;17.38;47.88
61641;HTU21D;62201;49.966;8.342;2023-06-14T02:46:45;17.34;48.01
61641;HTU21D;62201;49.966;8.342;2023-06-14T02:49:13;17.30;48.09
61641;HTU21D;62201;49.966;8.342;2023-06-14T02:51:39;17.22;48.31
61641;HTU21D;62201;49.966;8.342;2023-06-14T02:54:05;17.21;48.49
61641;HTU21D;62201;49.966;8.342;2023-06-14T02:56:30;17.17;48.51
61641;HTU21D;62201;49.966;8.342;2023-06-14T02:58:56;17.13;48.58
61641;HTU21D;62201;49.966;8.342;2023-06-14T03:01:22;17.14;48.82
61641;HTU21D;62201;49.966;8.342;2023-06-14T03:03:48;17.14;48.70
61641;HTU21D;62201;49.966;8.342;2023-06-14T03:06:13;17.16;48.73
61641;HTU21D;62201;49.966;8.342;2023-06-14T03:08:41;17.20;48.56
61641;HTU21D;62201;49.966;8.342;2023-06-14T03:11:07;17.21;48.60
61641;HTU21D;62201;49.966;8.342;2023-06-14T03:13:34;17.22;48.62
61641;HTU21D;62201;49.966;8.342;2023-06-14T03:16:00;17.23;48.55
61641;HTU21D;62201;49.966;8.342;2023-06-14T03:18:29;17.23;48.56
61641;HTU21D;62201;49.966;8.342;2023-06-14T03:20:55;17.19;48.59
61641;HTU21D;62201;49.966;8.342;2023-06-14T03:23:22;17.15;48.74
61641;HTU21D;62201;49.966;8.342;2023-06-14T03:25:48;17.13;48.84
61641;HTU21D;62201;49.966;8.342;2023-06-14T03:28:13;17.14;48.88
61641;HTU21D;62201;49.966;8.342;2023-06-14T03:30:38;17.18;48.95
61641;HTU21D;62201;49.966;8.342;2023-06-14T03:33:04;17.19;48.88
61641;HTU21D;62201;49.966;8.342;2023-06-14T03:35:30;17.21;48.89
61641;HTU21D;62201;49.966;8.342;2023-06-14T03:37:55;17.21;48.82
61641;HTU21D;62201;49.966;8.342;2023-06-14T03:40:21;17.22;48.89
61641;HTU21D;62201;49.966;8.342;2023-06-14T03:42:46;17.32;48.63
61641;HTU21D;62201;49.966;8.342;2023-06-14T03:45:12;17.38;48.46
61641;HTU21D;62201;49.966;8.342;2023-06-14T03:47:37;17.41;48.40
61641;HTU21D;62201;49.966;8.342;2023-06-14T03:50:03;17.44;48.32
61641;HTU21D;62201;49.966;8.342;2023-06-14T03:52:29;17.48;48.24
61641;HTU21D;62201;49.966;8.342;2023-06-14T03:54:55;17.51;48.20
61641;HTU21D;62201;49.966;8.342;2023-06-14T03:57:23;17.53;48.18
61641;HTU21D;62201;49.966;8.342;2023-06-14T03:59:48;17.49;48.31
61641;HTU21D;62201;49.966;8.342;2023-06-14T04:02:13;17.53;48.27
61641;HTU21D;62201;49.966;8.342;2023-06-14T04:04:43;17.60;48.18
61641;HTU21D;62201;49.966;8.342;2023-06-14T04:07:16;17.62;48.22
61641;HTU21D;62201;49.966;8.342;2023-06-14T04:09:45;17.63;48.21
61641;HTU21D;62201;49.966;8.342;2023-06-14T04:12:11;17.68;48.12
61641;HTU21D;62201;49.966;8.342;2023-06-14T04:14:38;17.72;48.05
61641;HTU21D;62201;49.966;8.342;2023-06-14T04:17:03;17.76;48.03
61641;HTU21D;62201;49.966;8.342;2023-06-14T04:19:29;17.78;47.96
61641;HTU21D;62201;49.966;8.342;2023-06-14T04:21:54;17.84;47.87
61641;HTU21D;62201;49.966;8.342;2023-06-14T04:24:20;17.91;47.64
61641;HTU21D;62201;49.966;8.342;2023-06-14T04:26:45;17.98;47.55
61641;HTU21D;62201;49.966;8.342;2023-06-14T04:29:15;18.02;47.44
61641;HTU21D;62201;49.966;8.342;2023-06-14T04:31:42;18.07;47.41
61641;HTU21D;62201;49.966;8.342;2023-06-14T04:34:08;18.14;47.16
61641;HTU21D;62201;49.966;8.342;2023-06-14T04:36:34;18.18;47.18
61641;HTU21D;62201;49.966;8.342;2023-06-14T04:39:02;18.23;46.99
61641;HTU21D;62201;49.966;8.342;2023-06-14T04:41:30;18.28;46.97
61641;HTU21D;62201;49.966;8.342;2023-06-14T04:43:56;18.35;46.99
61641;HTU21D;62201;49.966;8.342;2023-06-14T04:46:22;18.43;46.76
61641;HTU21D;62201;49.966;8.342;2023-06-14T04:48:47;18.50;46.66
61641;HTU21D;62201;49.966;8.342;2023-06-14T04:51:15;18.61;46.45
61641;HTU21D;62201;49.966;8.342;2023-06-14T04:53:41;18.67;46.12
61641;HTU21D;62201;49.966;8.342;2023-06-14T04:56:07;18.72;45.83
61641;HTU21D;62201;49.966;8.342;2023-06-14T04:58:32;18.78;45.77
61641;HTU21D;62201;49.966;8.342;2023-06-14T05:00:58;18.85;45.81
61641;HTU21D;62201;49.966;8.342;2023-06-14T05:03:24;18.88;45.72
61641;HTU21D;62201;49.966;8.342;2023-06-14T05:05:50;18.93;45.52
61641;HTU21D;62201;49.966;8.342;2023-06-14T05:08:16;19.02;45.49
61641;HTU21D;62201;49.966;8.342;2023-06-14T05:10:41;19.02;45.41
61641;HTU21D;62201;49.966;8.342;2023-06-14T05:13:07;19.07;45.45
61641;HTU21D;62201;49.966;8.342;2023-06-14T05:15:33;19.09;45.38
61641;HTU21D;62201;49.966;8.342;2023-06-14T05:17:59;19.14;45.40
61641;HTU21D;62201;49.966;8.342;2023-06-14T05:20:24;19.18;45.41
61641;HTU21D;62201;49.966;8.342;2023-06-14T05:22:52;19.23;45.45
61641;HTU21D;62201;49.966;8.342;2023-06-14T05:25:21;19.27;45.34
61641;HTU21D;62201;49.966;8.342;2023-06-14T05:27:47;19.38;45.07
61641;HTU21D;62201;49.966;8.342;2023-06-14T05:30:14;19.40;45.03
61641;HTU21D;62201;49.966;8.342;2023-06-14T05:32:39;19.47;45.02
61641;HTU21D;62201;49.966;8.342;2023-06-14T05:35:05;19.39;44.93
61641;HTU21D;62201;49.966;8.342;2023-06-14T05:37:31;19.41;45.06
61641;HTU21D;62201;49.966;8.342;2023-06-14T05:39:56;19.54;44.91
61641;HTU21D;62201;49.966;8.342;2023-06-14T05:42:22;19.62;44.93
61641;HTU21D;62201;49.966;8.342;2023-06-14T05:44:47;19.63;44.73
61641;HTU21D;62201;49.966;8.342;2023-06-14T05:47:12;19.66;44.83
61641;HTU21D;62201;49.966;8.342;2023-06-14T05:49:38;19.77;44.54
61641;HTU21D;62201;49.966;8.342;2023-06-14T05:52:03;19.85;44.09
61641;HTU21D;62201;49.966;8.342;2023-06-14T05:54:30;19.83;44.25
61641;HTU21D;62201;49.966;8.342;2023-06-14T05:56:55;19.91;44.35
61641;HTU21D;62201;49.966;8.342;2023-06-14T05:59:21;19.95;44.19
61641;HTU21D;62201;49.966;8.342;2023-06-14T06:01:46;20.03;43.50
61641;HTU21D;62201;49.966;8.342;2023-06-14T06:04:11;20.06;43.54
61641;HTU21D;62201;49.966;8.342;2023-06-14T06:06:37;19.95;43.14
61641;HTU21D;62201;49.966;8.342;2023-06-14T06:09:02;19.88;43.13
61641;HTU21D;62201;49.966;8.342;2023-06-14T06:11:28;19.97;43.22
61641;HTU21D;62201;49.966;8.342;2023-06-14T06:13:53;20.09;43.24
61641;HTU21D;62201;49.966;8.342;2023-06-14T06:16:18;20.04;43.51
61641;HTU21D;62201;49.966;8.342;2023-06-14T06:18:44;20.01;43.79
61641;HTU21D;62201;49.966;8.342;2023-06-14T06:21:09;19.98;44.05
61641;HTU21D;62201;49.966;8.342;2023-06-14T06:23:35;19.95;44.12
61641;HTU21D;62201;49.966;8.342;2023-06-14T06:26:00;19.84;44.44
61641;HTU21D;62201;49.966;8.342;2023-06-14T06:28:26;19.98;44.46
61641;HTU21D;62201;49.966;8.342;2023-06-14T06:30:51;20.09;44.35
61641;HTU21D;62201;49.966;8.342;2023-06-14T06:33:18;20.13;44.56
61641;HTU21D;62201;49.966;8.342;2023-06-14T06:35:43;20.15;44.96
61641;HTU21D;62201;49.966;8.342;2023-06-14T06:38:09;20.22;44.53
61641;HTU21D;62201;49.966;8.342;2023-06-14T06:40:35;20.25;44.54
61641;HTU21D;62201;49.966;8.342;2023-06-14T06:43:02;20.25;44.71
61641;HTU21D;62201;49.966;8.342;2023-06-14T06:45:28;20.20;44.64
61641;HTU21D;62201;49.966;8.342;2023-06-14T06:47:53;20.04;44.94
61641;HTU21D;62201;49.966;8.342;2023-06-14T06:50:19;20.06;45.11
61641;HTU21D;62201;49.966;8.342;2023-06-14T06:52:45;20.19;44.69
61641;HTU21D;62201;49.966;8.342;2023-06-14T06:55:10;20.19;44.93
61641;HTU21D;62201;49.966;8.342;2023-06-14T06:57:36;20.17;45.12
61641;HTU21D;62201;49.966;8.342;2023-06-14T07:00:02;20.16;44.87
61641;HTU21D;62201;49.966;8.342;2023-06-14T07:02:29;20.18;45.07
61641;HTU21D;62201;49.966;8.342;2023-06-14T07:04:56;20.29;44.85
61641;HTU21D;62201;49.966;8.342;2023-06-14T07:07:21;20.31;44.91
61641;HTU21D;62201;49.966;8.342;2023-06-14T07:09:46;20.29;44.87
61641;HTU21D;62201;49.966;8.342;2023-06-14T07:12:12;20.29;44.93
61641;HTU21D;62201;49.966;8.342;2023-06-14T07:14:37;20.20;45.17
61641;HTU21D;62201;49.966;8.342;2023-06-14T07:17:03;20.32;44.99
61641;HTU21D;62201;49.966;8.342;2023-06-14T07:19:28;20.40;44.58
61641;HTU21D;62201;49.966;8.342;2023-06-14T07:21:54;20.40;44.55
61641;HTU21D;62201;49.966;8.342;2023-06-14T07:24:19;20.41;44.66
61641;HTU21D;62201;49.966;8.342;2023-06-14T07:26:46;20.51;44.34
61641;HTU21D;62201;49.966;8.342;2023-06-14T07:29:13;20.58;43.98
61641;HTU21D;62201;49.966;8.342;2023-06-14T07:31:39;20.63;43.77
61641;HTU21D;62201;49.966;8.342;2023-06-14T07:34:04;20.75;43.12
61641;HTU21D;62201;49.966;8.342;2023-06-14T07:36:30;20.89;43.13
61641;HTU21D;62201;49.966;8.342;2023-06-14T07:38:55;20.81;43.05
61641;HTU21D;62201;49.966;8.342;2023-06-14T07:41:21;20.80;43.30
61641;HTU21D;62201;49.966;8.342;2023-06-14T07:43:47;20.88;43.35
61641;HTU21D;62201;49.966;8.342;2023-06-14T07:46:12;20.96;43.03
61641;HTU21D;62201;49.966;8.342;2023-06-14T07:48:37;21.23;42.83
61641;HTU21D;62201;49.966;8.342;2023-06-14T07:51:03;21.30;42.25
61641;HTU21D;62201;49.966;8.342;2023-06-14T07:53:29;21.21;42.19
61641;HTU21D;62201;49.966;8.342;2023-06-14T07:55:56;21.18;42.07
61641;HTU21D;62201;49.966;8.342;2023-06-14T07:58:21;21.29;42.13
61641;HTU21D;62201;49.966;8.342;2023-06-14T08:00:46;21.34;42.00
61641;HTU21D;62201;49.966;8.342;2023-06-14T08:03:12;21.47;41.87
61641;HTU21D;62201;49.966;8.342;2023-06-14T08:05:37;21.61;41.78
61641;HTU21D;62201;49.966;8.342;2023-06-14T08:08:03;21.55;41.00
61641;HTU21D;62201;49.966;8.342;2023-06-14T08:10:28;21.68;41.17
61641;HTU21D;62201;49.966;8.342;2023-06-14T08:12:54;21.82;40.67
61641;HTU21D;62201;49.966;8.342;2023-06-14T08:15:19;21.74;41.23
61641;HTU21D;62201;49.966;8.342;2023-06-14T08:17:45;21.78;41.26
61641;HTU21D;62201;49.966;8.342;2023-06-14T08:20:12;21.90;41.71
61641;HTU21D;62201;49.966;8.342;2023-06-14T08:22:38;22.41;40.61
61641;HTU21D;62201;49.966;8.342;2023-06-14T08:25:05;22.64;40.17
61641;HTU21D;62201;49.966;8.342;2023-06-14T08:27:30;22.44;40.02
61641;HTU21D;62201;49.966;8.342;2023-06-14T08:29:55;22.49;40.01
61641;HTU21D;62201;49.966;8.342;2023-06-14T08:32:21;22.48;40.12
61641;HTU21D;62201;49.966;8.342;2023-06-14T08:34:47;22.87;38.63
61641;HTU21D;62201;49.966;8.342;2023-06-14T08:37:12;23.09;37.84
61641;HTU21D;62201;49.966;8.342;2023-06-14T08:39:37;23.49;37.65
61641;HTU21D;62201;49.966;8.342;2023-06-14T08:42:04;24.10;36.67
61641;HTU21D;62201;49.966;8.342;2023-06-14T08:44:31;24.78;35.53
61641;HTU21D;62201;49.966;8.342;2023-06-14T08:46:56;24.87;35.13
61641;HTU21D;62201;49.966;8.342;2023-06-14T08:49:22;24.68;35.63
61641;HTU21D;62201;49.966;8.342;2023-06-14T08:51:57;24.78;34.70
61641;HTU21D;62201;49.966;8.342;2023-06-14T08:54:23;25.23;34.75
61641;HTU21D;62201;49.966;8.342;2023-06-14T08:56:53;25.35;34.51
61641;HTU21D;62201;49.966;8.342;2023-06-14T08:59:19;25.42;34.49
61641;HTU21D;62201;49.966;8.342;2023-06-14T09:01:46;25.33;33.91
61641;HTU21D;62201;49.966;8.342;2023-06-14T09:04:12;25.35;34.07
61641;HTU21D;62201;49.966;8.342;2023-06-14T09:06:38;25.62;33.67
61641;HTU21D;62201;49.966;8.342;2023-06-14T09:09:03;25.32;33.35
61641;HTU21D;62201;49.966;8.342;2023-06-14T09:11:30;25.59;33.08
61641;HTU21D;62201;49.966;8.342;2023-06-14T09:13:55;24.93;35.07
61641;HTU21D;62201;49.966;8.342;2023-06-14T09:16:21;25.02;34.25
61641;HTU21D;62201;49.966;8.342;2023-06-14T09:18:47;25.68;32.98
61641;HTU21D;62201;49.966;8.342;2023-06-14T09:21:14;25.73;32.80
61641;HTU21D;62201;49.966;8.342;2023-06-14T09:23:42;24.93;34.08
61641;HTU21D;62201;49.966;8.342;2023-06-14T09:28:33;25.51;33.51
61641;HTU21D;62201;49.966;8.342;2023-06-14T09:31:00;25.96;31.92
61641;HTU21D;62201;49.966;8.342;2023-06-14T09:33:25;25.17;32.86
61641;HTU21D;62201;49.966;8.342;2023-06-14T09:35:52;25.90;31.45
61641;HTU21D;62201;49.966;8.342;2023-06-14T09:38:18;26.08;30.99
61641;HTU21D;62201;49.966;8.342;2023-06-14T09:40:43;26.51;29.84
61641;HTU21D;62201;49.966;8.342;2023-06-14T09:43:08;26.82;29.86
61641;HTU21D;62201;49.966;8.342;2023-06-14T09:45:35;26.68;29.19
61641;HTU21D;62201;49.966;8.342;2023-06-14T09:48:01;26.35;29.72
61641;HTU21D;62201;49.966;8.342;2023-06-14T09:50:27;26.77;29.15
61641;HTU21D;62201;49.966;8.342;2023-06-14T09:52:55;26.28;30.51
61641;HTU21D;62201;49.966;8.342;2023-06-14T09:55:27;26.12;30.02
61641;HTU21D;62201;49.966;8.342;2023-06-14T09:57:55;26.55;29.45
61641;HTU21D;62201;49.966;8.342;2023-06-14T10:00:23;26.48;29.47
61641;HTU21D;62201;49.966;8.342;2023-06-14T10:02:54;27.04;28.74
61641;HTU21D;62201;49.966;8.342;2023-06-14T10:05:21;27.26;28.84
61641;HTU21D;62201;49.966;8.342;2023-06-14T10:10:12;27.39;28.21
61641;HTU21D;62201;49.966;8.342;2023-06-14T10:12:38;27.17;28.54
61641;HTU21D;62201;49.966;8.342;2023-06-14T10:15:04;27.01;29.00
61641;HTU21D;62201;49.966;8.342;2023-06-14T10:17:41;27.34;28.23
61641;HTU21D;62201;49.966;8.342;2023-06-14T10:20:48;26.64;29.34
61641;HTU21D;62201;49.966;8.342;2023-06-14T10:23:21;26.79;29.61
61641;HTU21D;62201;49.966;8.342;2023-06-14T10:25:50;26.79;29.64
61641;HTU21D;62201;49.966;8.342;2023-06-14T10:28:19;26.97;29.51
61641;HTU21D;62201;49.966;8.342;2023-06-14T10:31:03;26.90;29.24
61641;HTU21D;62201;49.966;8.342;2023-06-14T10:33:39;26.62;29.35
61641;HTU21D;62201;49.966;8.342;2023-06-14T10:36:24;26.77;29.51
61641;HTU21D;62201;49.966;8.342;2023-06-14T10:39:03;27.06;28.61
61641;HTU21D;62201;49.966;8.342;2023-06-14T10:41:29;26.56;29.68
61641;HTU21D;62201;49.966;8.342;2023-06-14T10:46:52;26.93;28.71
61641;HTU21D;62201;49.966;8.342;2023-06-14T10:49:18;27.14;28.25
61641;HTU21D;62201;49.966;8.342;2023-06-14T10:51:53;27.87;27.10
61641;HTU21D;62201;49.966;8.342;2023-06-14T10:54:22;27.83;26.67
61641;HTU21D;62201;49.966;8.342;2023-06-14T10:56:52;27.88;26.82
61641;HTU21D;62201;49.966;8.342;2023-06-14T10:59:18;27.91;27.26
61641;HTU21D;62201;49.966;8.342;2023-06-14T11:02:04;26.90;28.34
61641;HTU21D;62201;49.966;8.342;2023-06-14T11:04:47;26.52;29.87
61641;HTU21D;62201;49.966;8.342;2023-06-14T11:10:41;26.73;28.77
61641;HTU21D;62201;49.966;8.342;2023-06-14T11:13:07;26.35;29.63
61641;HTU21D;62201;49.966;8.342;2023-06-14T11:15:35;26.47;29.64
61641;HTU21D;62201;49.966;8.342;2023-06-14T11:18:08;26.61;29.32
61641;HTU21D;62201;49.966;8.342;2023-06-14T11:20:36;26.81;28.82
61641;HTU21D;62201;49.966;8.342;2023-06-14T11:23:03;26.75;28.27
61641;HTU21D;62201;49.966;8.342;2023-06-14T11:25:29;26.90;27.65
61641;HTU21D;62201;49.966;8.342;2023-06-14T11:27:55;27.15;27.90
61641;HTU21D;62201;49.966;8.342;2023-06-14T11:30:21;27.61;26.86
61641;HTU21D;62201;49.966;8.342;2023-06-14T11:32:47;27.17;27.93
61641;HTU21D;62201;49.966;8.342;2023-06-14T11:35:16;26.90;28.00
61641;HTU21D;62201;49.966;8.342;2023-06-14T11:37:42;26.77;28.47
61641;HTU21D;62201;49.966;8.342;2023-06-14T11:40:10;27.10;28.53
61641;HTU21D;62201;49.966;8.342;2023-06-14T11:42:37;27.49;27.58
61641;HTU21D;62201;49.966;8.342;2023-06-14T11:45:04;26.52;29.31
61641;HTU21D;62201;49.966;8.342;2023-06-14T11:47:32;25.53;30.95
61641;HTU21D;62201;49.966;8.342;2023-06-14T11:50:04;25.71;30.83
61641;HTU21D;62201;49.966;8.342;2023-06-14T11:52:30;25.95;30.94
61641;HTU21D;62201;49.966;8.342;2023-06-14T11:54:56;26.16;30.49
61641;HTU21D;62201;49.966;8.342;2023-06-14T11:57:22;26.43;29.96
61641;HTU21D;62201;49.966;8.342;2023-06-14T11:59:48;26.85;28.82
61641;HTU21D;62201;49.966;8.342;2023-06-14T12:02:15;26.79;29.22
61641;HTU21D;62201;49.966;8.342;2023-06-14T12:04:42;28.26;26.93
61641;HTU21D;62201;49.966;8.342;2023-06-14T12:07:15;28.57;26.65
61641;HTU21D;62201;49.966;8.342;2023-06-14T12:10:03;28.64;26.42
61641;HTU21D;62201;49.966;8.342;2023-06-14T12:12:35;28.53;26.50
61641;HTU21D;62201;49.966;8.342;2023-06-14T12:15:03;27.23;28.21
61641;HTU21D;62201;49.966;8.342;2023-06-14T12:17:32;27.21;28.71
61641;HTU21D;62201;49.966;8.342;2023-06-14T12:19:58;26.91;29.15
61641;HTU21D;62201;49.966;8.342;2023-06-14T12:22:23;26.48;29.62
61641;HTU21D;62201;49.966;8.342;2023-06-14T12:24:48;25.91;30.42
61641;HTU21D;62201;49.966;8.342;2023-06-14T12:27:16;25.29;31.63
61641;HTU21D;62201;49.966;8.342;2023-06-14T12:29:44;25.04;32.22
61641;HTU21D;62201;49.966;8.342;2023-06-14T12:32:10;25.46;31.83
61641;HTU21D;62201;49.966;8.342;2023-06-14T12:34:35;26.23;30.77
61641;HTU21D;62201;49.966;8.342;2023-06-14T12:37:01;27.02;29.65
61641;HTU21D;62201;49.966;8.342;2023-06-14T12:39:28;27.61;28.24
61641;HTU21D;62201;49.966;8.342;2023-06-14T12:41:55;28.04;27.11
61641;HTU21D;62201;49.966;8.342;2023-06-14T12:44:20;28.26;26.80
61641;HTU21D;62201;49.966;8.342;2023-06-14T12:46:45;27.47;27.36
61641;HTU21D;62201;49.966;8.342;2023-06-14T12:49:12;26.65;28.94
61641;HTU21D;62201;49.966;8.342;2023-06-14T12:51:39;25.94;30.36
61641;HTU21D;62201;49.966;8.342;2023-06-14T12:54:05;25.52;31.22
61641;HTU21D;62201;49.966;8.342;2023-06-14T12:56:30;25.46;31.28
61641;HTU21D;62201;49.966;8.342;2023-06-14T12:58:56;25.39;31.45
61641;HTU21D;62201;49.966;8.342;2023-06-14T13:01:21;25.45;31.68
61641;HTU21D;62201;49.966;8.342;2023-06-14T13:03:47;25.21;31.92
61641;HTU21D;62201;49.966;8.342;2023-06-14T13:06:13;25.04;31.88
61641;HTU21D;62201;49.966;8.342;2023-06-14T13:08:39;24.76;31.80
61641;HTU21D;62201;49.966;8.342;2023-06-14T13:11:04;25.03;31.40
61641;HTU21D;62201;49.966;8.342;2023-06-14T13:13:30;25.17;31.12
61641;HTU21D;62201;49.966;8.342;2023-06-14T13:15:55;25.62;30.69
61641;HTU21D;62201;49.966;8.342;2023-06-14T13:18:21;26.32;29.61
61641;HTU21D;62201;49.966;8.342;2023-06-14T13:20:46;26.92;28.71
61641;HTU21D;62201;49.966;8.342;2023-06-14T13:23:12;26.75;28.39
61641;HTU21D;62201;49.966;8.342;2023-06-14T13:25:38;26.27;28.74
61641;HTU21D;62201;49.966;8.342;2023-06-14T13:28:04;26.56;28.28
61641;HTU21D;62201;49.966;8.342;2023-06-14T13:30:30;26.28;28.86
61641;HTU21D;62201;49.966;8.342;2023-06-14T13:32:56;25.90;28.79
61641;HTU21D;62201;49.966;8.342;2023-06-14T13:35:21;25.97;28.36
61641;HTU21D;62201;49.966;8.342;2023-06-14T13:37:47;25.61;28.83
61641;HTU21D;62201;49.966;8.342;2023-06-14T13:40:13;25.73;28.84
61641;HTU21D;62201;49.966;8.342;2023-06-14T13:42:38;25.63;29.20
61641;HTU21D;62201;49.966;8.342;2023-06-14T13:45:04;25.54;29.32
61641;HTU21D;62201;49.966;8.342;2023-06-14T13:47:31;25.73;28.81
61641;HTU21D;62201;49.966;8.342;2023-06-14T13:49:57;25.81;28.84
61641;HTU21D;62201;49.966;8.342;2023-06-14T13:52:23;25.74;28.90
61641;HTU21D;62201;49.966;8.342;2023-06-14T13:54:49;25.68;29.51
61641;HTU21D;62201;49.966;8.342;2023-06-14T13:57:15;26.43;28.25
61641;HTU21D;62201;49.966;8.342;2023-06-14T13:59:41;26.92;27.91
61641;HTU21D;62201;49.966;8.342;2023-06-14T14:02:07;26.39;27.99
61641;HTU21D;62201;49.966;8.342;2023-06-14T14:04:33;27.13;27.24
61641;HTU21D;62201;49.966;8.342;2023-06-14T14:07:00;28.49;25.33
61641;HTU21D;62201;49.966;8.342;2023-06-14T14:09:26;28.71;24.55
61641;HTU21D;62201;49.966;8.342;2023-06-14T14:11:51;28.08;25.01
61641;HTU21D;62201;49.966;8.342;2023-06-14T14:14:17;27.60;25.27
61641;HTU21D;62201;49.966;8.342;2023-06-14T14:16:43;27.17;25.69
61641;HTU21D;62201;49.966;8.342;2023-06-14T14:19:08;27.30;25.77
61641;HTU21D;62201;49.966;8.342;2023-06-14T14:21:33;26.82;26.42
61641;HTU21D;62201;49.966;8.342;2023-06-14T14:23:59;26.49;27.10
61641;HTU21D;62201;49.966;8.342;2023-06-14T14:26:25;26.36;27.56
61641;HTU21D;62201;49.966;8.342;2023-06-14T14:28:51;26.04;28.09
61641;HTU21D;62201;49.966;8.342;2023-06-14T14:31:17;25.88;27.97
61641;HTU21D;62201;49.966;8.342;2023-06-14T14:33:42;25.38;28.24
61641;HTU21D;62201;49.966;8.342;2023-06-14T14:36:08;25.27;28.71
61641;HTU21D;62201;49.966;8.342;2023-06-14T14:38:33;25.50;28.93
61641;HTU21D;62201;49.966;8.342;2023-06-14T14:40:59;26.80;27.00
61641;HTU21D;62201;49.966;8.342;2023-06-14T14:43:24;27.25;26.26
61641;HTU21D;62201;49.966;8.342;2023-06-14T14:45:50;27.44;25.83
61641;HTU21D;62201;49.966;8.342;2023-06-14T14:48:15;28.71;24.14
61641;HTU21D;62201;49.966;8.342;2023-06-14T14:50:41;28.26;24.14
61641;HTU21D;62201;49.966;8.342;2023-06-14T14:53:06;28.54;23.60
61641;HTU21D;62201;49.966;8.342;2023-06-14T14:55:32;29.31;23.16
61641;HTU21D;62201;49.966;8.342;2023-06-14T14:58:00;29.23;22.53
61641;HTU21D;62201;49.966;8.342;2023-06-14T15:00:25;29.12;22.74
61641;HTU21D;62201;49.966;8.342;2023-06-14T15:02:50;27.87;24.39
61641;HTU21D;62201;49.966;8.342;2023-06-14T15:05:16;27.63;24.27
61641;HTU21D;62201;49.966;8.342;2023-06-14T15:07:42;28.26;23.57
61641;HTU21D;62201;49.966;8.342;2023-06-14T15:10:07;28.58;23.19
61641;HTU21D;62201;49.966;8.342;2023-06-14T15:12:34;28.97;22.25
61641;HTU21D;62201;49.966;8.342;2023-06-14T15:14:59;28.19;22.89
61641;HTU21D;62201;49.966;8.342;2023-06-14T15:17:25;28.60;22.95
61641;HTU21D;62201;49.966;8.342;2023-06-14T15:19:50;28.15;25.00
61641;HTU21D;62201;49.966;8.342;2023-06-14T15:22:16;28.52;25.21
61641;HTU21D;62201;49.966;8.342;2023-06-14T15:24:42;28.95;24.77